Time;durP1;ratioP1;P1;durP2;ratioP2;P2;SDS_P1;SDS_P2;PMS_P1;PMS_P2;Temp;Humidity;BMP_temperature;BMP_pressure;BME280_temperature;BME280_humidity;BME280_pressure;Samples;Min_cycle;Max_cycle;Signal;HPM_P1;HPM_P2
2023/09/13 00:01:15;;;;;;;9.63;8.77;;;;;;;15.55;71.68;93120.19;5067320;28;20227;-82
2023/09/13 00:03:40;;;;;;;9.43;8.93;;;;;;;15.68;70.56;93115.97;5069788;28;20197;-78
2023/09/13 00:06:06;;;;;;;10.00;9.10;;;;;;;15.66;71.02;93112.84;5071972;28;20233;-80
2023/09/13 00:08:31;;;;;;;9.43;8.73;;;;;;;15.49;71.90;93115.31;5072273;28;20189;-80
2023/09/13 00:11:06;;;;;;;10.53;9.53;;;;;;;15.50;71.36;93106.38;5071457;28;20295;-80
2023/09/13 00:13:32;;;;;;;10.60;9.80;;;;;;;15.42;71.47;93114.97;5072386;28;20208;-80
2023/09/13 00:15:58;;;;;;;9.70;8.80;;;;;;;15.39;70.82;93107.66;5071570;28;20362;-81
2023/09/13 00:18:23;;;;;;;9.83;9.13;;;;;;;15.40;70.43;93111.84;5072007;28;20182;-78
2023/09/13 00:20:53;;;;;;;9.40;8.87;;;;;;;15.36;69.99;93105.59;5063916;28;20259;-80
2023/09/13 00:23:19;;;;;;;10.20;9.50;;;;;;;15.38;70.46;93108.72;5051951;28;20197;-81
2023/09/13 00:25:45;;;;;;;10.53;9.63;;;;;;;15.40;70.29;93114.47;5058191;28;20225;-82
2023/09/13 00:28:10;;;;;;;10.27;9.50;;;;;;;15.30;70.55;93101.50;5071763;28;20181;-80
2023/09/13 00:30:35;;;;;;;9.07;8.43;;;;;;;15.38;70.69;93106.88;5065789;28;20222;-81
2023/09/13 00:33:02;;;;;;;9.50;8.83;;;;;;;15.46;69.28;93121.19;5050623;28;20213;-82
2023/09/13 00:35:28;;;;;;;11.23;10.30;;;;;;;15.46;69.04;93103.53;5055950;28;20217;-82
2023/09/13 00:37:53;;;;;;;10.50;9.67;;;;;;;15.58;69.35;93113.56;5070628;28;20189;-82
2023/09/13 00:40:19;;;;;;;9.87;9.27;;;;;;;15.48;69.49;93114.56;5071242;28;20222;-78
2023/09/13 00:42:44;;;;;;;9.10;8.27;;;;;;;15.48;70.01;93119.03;5071757;28;20243;-82
2023/09/13 00:45:10;;;;;;;9.33;8.43;;;;;;;15.62;70.82;93117.16;5059325;28;20190;-82
2023/09/13 00:47:36;;;;;;;10.07;9.17;;;;;;;15.64;70.92;93117.63;5071302;28;20221;-81
2023/09/13 00:50:03;;;;;;;9.67;8.97;;;;;;;15.62;70.34;93119.78;5069878;28;20181;-80
2023/09/13 00:52:28;;;;;;;10.33;9.53;;;;;;;15.43;71.62;93104.13;5051252;28;20218;-80
2023/09/13 00:54:54;;;;;;;9.33;8.63;;;;;;;15.35;72.16;93114.53;5051537;28;20186;-81
2023/09/13 00:57:21;;;;;;;9.37;8.57;;;;;;;15.35;72.52;93119.78;5050957;28;20660;-81
2023/09/13 00:59:47;;;;;;;10.60;9.77;;;;;;;15.36;71.73;93122.13;5051202;28;20182;-82
2023/09/13 01:02:12;;;;;;;10.27;9.50;;;;;;;15.30;72.53;93110.16;5056661;28;20218;-79
2023/09/13 01:04:38;;;;;;;10.30;9.50;;;;;;;15.27;72.52;93112.63;5071020;28;20819;-80
2023/09/13 01:07:06;;;;;;;9.03;8.33;;;;;;;15.21;72.03;93119.81;5070933;28;20247;-80
2023/09/13 01:09:32;;;;;;;10.07;9.27;;;;;;;15.20;71.74;93122.75;5073875;28;20261;-81
2023/09/13 01:11:59;;;;;;;9.63;8.83;;;;;;;15.11;72.04;93117.41;5070593;28;20232;-83
2023/09/13 01:14:25;;;;;;;9.50;8.80;;;;;;;15.07;72.00;93113.78;5071503;28;20224;-82
2023/09/13 01:16:59;;;;;;;10.33;9.13;;;;;;;15.13;71.83;93119.75;5054333;28;20214;-81
2023/09/13 01:19:43;;;;;;;10.37;9.77;;;;;;;15.11;73.40;93112.16;5050982;28;20192;-81
2023/09/13 01:23:16;;;;;;;10.33;9.30;;;;;;;15.14;73.80;93116.81;5069026;28;20228;-80
2023/09/13 01:26:15;;;;;;;10.43;9.43;;;;;;;15.04;72.42;93118.84;5068192;28;20233;-81
2023/09/13 01:28:46;;;;;;;10.03;9.27;;;;;;;15.09;70.89;93111.66;5068724;28;20197;-80
2023/09/13 01:31:13;;;;;;;9.43;8.83;;;;;;;14.98;71.51;93099.78;5058814;28;20365;-81
2023/09/13 01:33:39;;;;;;;9.50;8.80;;;;;;;15.16;70.96;93116.53;5038807;28;20317;-81
2023/09/13 01:36:04;;;;;;;9.47;8.77;;;;;;;15.17;70.91;93113.59;5058054;28;20241;-80
2023/09/13 01:38:30;;;;;;;9.40;8.80;;;;;;;15.14;70.93;93105.50;5070816;28;20280;-80
2023/09/13 01:41:08;;;;;;;10.30;9.60;;;;;;;15.25;70.53;93115.50;5070260;28;20232;-80
2023/09/13 01:43:34;;;;;;;10.37;9.60;;;;;;;15.30;70.68;93122.56;5070827;28;20185;-82
2023/09/13 01:46:01;;;;;;;10.13;9.33;;;;;;;15.24;70.89;93127.13;5068794;28;20218;-78
2023/09/13 01:48:28;;;;;;;13.00;9.77;;;;;;;15.25;70.48;93127.91;5069826;28;20217;-80
2023/09/13 01:50:54;;;;;;;9.67;9.07;;;;;;;15.14;70.50;93113.41;5068790;28;20256;-80
2023/09/13 01:53:19;;;;;;;11.17;10.03;;;;;;;15.22;71.75;93115.34;5068347;28;20201;-80
2023/09/13 01:55:45;;;;;;;9.67;9.07;;;;;;;15.11;73.65;93119.25;5069901;28;20209;-78
2023/09/13 01:58:10;;;;;;;10.10;9.23;;;;;;;15.12;73.56;93115.53;5070133;28;20193;-79
2023/09/13 02:00:36;;;;;;;10.47;9.77;;;;;;;14.91;74.51;93120.41;5069753;28;20275;-81
2023/09/13 02:03:02;;;;;;;9.40;8.70;;;;;;;14.92;74.31;93113.31;5070113;28;20192;-81
2023/09/13 02:05:27;;;;;;;9.77;9.00;;;;;;;15.02;73.87;93116.50;5063800;28;20229;-81
2023/09/13 02:07:52;;;;;;;9.07;8.37;;;;;;;14.81;74.50;93114.56;5049996;28;20189;-83
2023/09/13 02:10:18;;;;;;;9.90;9.27;;;;;;;14.86;74.07;93117.88;5052990;28;20339;-81
2023/09/13 02:12:43;;;;;;;10.53;9.83;;;;;;;14.74;73.68;93108.94;5069939;28;20268;-81
2023/09/13 02:15:09;;;;;;;9.80;9.00;;;;;;;14.81;73.74;93117.19;5067629;28;20201;-80
2023/09/13 02:17:35;;;;;;;9.73;9.13;;;;;;;14.76;74.84;93122.53;5049888;28;20178;-80
2023/09/13 02:20:00;;;;;;;10.53;9.63;;;;;;;14.70;74.32;93118.44;5049447;28;20228;-80
2023/09/13 02:22:26;;;;;;;9.83;9.13;;;;;;;14.60;75.66;93113.38;5069882;28;20194;-80
2023/09/13 02:24:51;;;;;;;9.97;8.97;;;;;;;14.57;74.65;93108.72;5069642;28;20170;-79
2023/09/13 02:27:16;;;;;;;9.93;9.10;;;;;;;14.57;74.92;93114.72;5049105;28;20225;-80
2023/09/13 02:29:42;;;;;;;11.10;10.17;;;;;;;14.69;74.57;93109.81;5049364;28;20175;-80
2023/09/13 02:32:07;;;;;;;10.83;9.57;;;;;;;14.64;75.23;93115.16;5067421;28;20251;-81
2023/09/13 02:34:32;;;;;;;9.90;9.20;;;;;;;14.46;76.29;93102.84;5067741;28;20213;-80
2023/09/13 02:36:58;;;;;;;10.93;9.47;;;;;;;14.50;76.29;93106.47;5068951;28;20224;-80
2023/09/13 02:39:31;;;;;;;10.23;9.43;;;;;;;14.51;74.96;93104.63;5069235;28;20208;-79
2023/09/13 02:41:56;;;;;;;13.27;8.93;;;;;;;14.65;75.96;93111.44;5069044;28;20229;-81
2023/09/13 02:44:22;;;;;;;10.37;9.67;;;;;;;14.56;75.63;93107.13;5067326;28;20224;-80
2023/09/13 02:46:47;;;;;;;9.57;8.97;;;;;;;14.46;75.69;93103.63;5053518;28;20202;-81
2023/09/13 02:49:12;;;;;;;10.07;9.17;;;;;;;14.51;76.22;93115.13;5049626;28;20304;-81
2023/09/13 02:51:38;;;;;;;9.93;9.13;;;;;;;14.54;75.98;93115.31;5063289;28;20221;-81
2023/09/13 02:54:04;;;;;;;10.07;9.30;;;;;;;14.35;75.88;93125.09;5056128;28;20266;-80
2023/09/13 02:56:29;;;;;;;11.43;9.53;;;;;;;14.35;75.64;93133.75;5055940;28;20233;-80
2023/09/13 02:58:55;;;;;;;9.90;9.30;;;;;;;14.39;75.80;93134.75;5048180;28;20205;-80
2023/09/13 03:01:22;;;;;;;10.57;9.87;;;;;;;14.28;76.72;93129.94;5060657;28;20221;-80
2023/09/13 03:03:47;;;;;;;9.73;9.00;;;;;;;14.05;77.63;93101.94;5068737;28;20178;-80
2023/09/13 03:06:13;;;;;;;10.33;9.67;;;;;;;14.16;78.07;93134.84;5068634;28;20224;-81
2023/09/13 03:08:39;;;;;;;9.90;9.10;;;;;;;14.25;78.19;93138.41;5068833;28;20880;-80
2023/09/13 03:11:12;;;;;;;11.73;10.63;;;;;;;14.35;77.13;93138.22;5068759;28;20217;-80
2023/09/13 03:13:38;;;;;;;10.73;9.73;;;;;;;14.31;76.28;93135.41;5069061;28;20217;-82
2023/09/13 03:16:14;;;;;;;10.47;9.57;;;;;;;14.15;77.54;93134.06;5067374;28;20252;-81
2023/09/13 03:18:39;;;;;;;10.77;9.87;;;;;;;14.11;78.58;93133.09;5069011;28;20177;-81
2023/09/13 03:21:09;;;;;;;10.23;9.30;;;;;;;14.00;79.21;93136.94;5068719;28;20233;-81
2023/09/13 03:23:39;;;;;;;10.07;9.27;;;;;;;13.91;79.66;93136.03;5069179;28;20193;-81
2023/09/13 03:26:16;;;;;;;10.40;9.33;;;;;;;13.82;79.54;93127.22;5068549;28;20228;-81
2023/09/13 03:28:44;;;;;;;10.63;9.70;;;;;;;14.12;78.63;93142.53;5068872;28;20181;-80
2023/09/13 03:31:14;;;;;;;11.13;10.03;;;;;;;14.06;78.49;93148.13;5058000;28;20218;-79
2023/09/13 03:33:40;;;;;;;10.33;9.63;;;;;;;13.89;79.10;93130.28;5048863;28;20213;-77
2023/09/13 03:36:10;;;;;;;11.20;10.50;;;;;;;13.96;78.55;93133.31;5058838;28;20251;-80
2023/09/13 03:38:38;;;;;;;12.67;9.27;;;;;;;13.97;78.04;93142.75;5070400;28;20211;-80
2023/09/13 03:41:14;;;;;;;10.00;9.00;;;;;;;13.83;79.86;93143.75;5072826;28;20225;-80
2023/09/13 03:43:39;;;;;;;11.80;10.63;;;;;;;13.84;78.99;93138.22;5072974;28;20234;-81
2023/09/13 03:46:06;;;;;;;11.57;10.37;;;;;;;13.95;81.45;93139.63;5062900;28;20233;-81
2023/09/13 03:48:32;;;;;;;12.00;10.83;;;;;;;13.85;80.97;93131.91;5052525;28;20286;-81
2023/09/13 03:50:58;;;;;;;10.13;9.40;;;;;;;14.03;78.49;93139.00;5061163;28;20312;-80
2023/09/13 03:53:24;;;;;;;11.43;9.23;;;;;;;13.86;79.66;93143.97;5072437;28;20209;-81
2023/09/13 03:55:53;;;;;;;11.13;10.23;;;;;;;13.74;79.66;93132.34;5071800;28;20284;-80
2023/09/13 03:58:19;;;;;;;10.33;9.63;;;;;;;13.80;81.28;93147.75;5071828;28;20174;-77
2023/09/13 04:00:45;;;;;;;10.97;10.37;;;;;;;13.84;80.20;93143.47;5058930;28;20281;-81
2023/09/13 04:03:11;;;;;;;9.70;9.07;;;;;;;13.73;79.75;93131.56;5040220;28;20205;-84
2023/09/13 04:05:37;;;;;;;10.70;9.73;;;;;;;13.75;79.03;93145.19;5056800;28;20225;-84
2023/09/13 04:08:02;;;;;;;11.23;9.30;;;;;;;13.65;80.40;93124.31;5066546;28;20208;-82
2023/09/13 04:10:28;;;;;;;11.70;10.83;;;;;;;13.80;81.09;93134.63;5061658;28;20226;-79
2023/09/13 04:12:53;;;;;;;10.83;10.17;;;;;;;13.93;80.75;93147.00;5043900;28;20214;-79
2023/09/13 04:15:19;;;;;;;11.13;10.23;;;;;;;13.87;80.50;93132.41;5049757;28;20248;-77
2023/09/13 04:17:44;;;;;;;14.50;10.30;;;;;;;13.91;79.67;93145.75;5057031;28;20218;-79
2023/09/13 04:20:10;;;;;;;11.43;10.37;;;;;;;13.97;80.11;93137.50;5068304;28;20217;-84
2023/09/13 04:22:36;;;;;;;11.07;10.10;;;;;;;14.05;79.64;93144.75;5065149;28;20185;-79
2023/09/13 04:25:02;;;;;;;10.67;9.90;;;;;;;14.12;80.07;93139.09;5060349;28;20225;-75
2023/09/13 04:27:27;;;;;;;10.27;9.07;;;;;;;14.08;78.95;93149.41;5034153;28;20958;-75
2023/09/13 04:29:54;;;;;;;12.37;10.60;;;;;;;14.01;78.95;93127.97;5039561;28;20179;-84
2023/09/13 04:32:20;;;;;;;12.43;9.07;;;;;;;14.07;81.95;93145.22;5042849;28;20218;-81
2023/09/13 04:34:46;;;;;;;11.40;10.30;;;;;;;14.29;80.90;93145.41;5050498;28;20194;-76
2023/09/13 04:37:12;;;;;;;10.27;9.53;;;;;;;14.21;80.85;93142.66;5096111;28;20290;-77
2023/09/13 04:39:37;;;;;;;15.50;11.07;;;;;;;14.34;80.39;93147.19;5058866;28;20183;-84
2023/09/13 04:42:03;;;;;;;11.40;10.40;;;;;;;14.37;81.63;93147.41;5068219;28;20210;-80
2023/09/13 04:44:29;;;;;;;12.07;10.77;;;;;;;14.53;81.27;93150.53;5064564;28;20189;-82
2023/09/13 04:46:56;;;;;;;13.43;12.17;;;;;;;14.54;81.19;93151.34;5056192;28;20209;-80
2023/09/13 04:49:22;;;;;;;10.93;9.87;;;;;;;14.61;80.74;93147.25;5067745;28;20257;-83
2023/09/13 04:51:47;;;;;;;22.47;10.57;;;;;;;14.73;80.33;93144.16;5046959;28;20233;-77
2023/09/13 04:54:13;;;;;;;17.17;11.40;;;;;;;14.67;80.70;93135.59;5037154;28;20233;-78
2023/09/13 04:56:38;;;;;;;14.20;10.60;;;;;;;14.77;79.83;93145.91;5062608;28;20229;-80
2023/09/13 04:59:04;;;;;;;13.10;11.27;;;;;;;14.87;79.90;93147.56;5058889;28;20276;-80
2023/09/13 05:01:30;;;;;;;12.57;9.90;;;;;;;14.86;79.12;93133.66;5050334;28;20213;-80
2023/09/13 05:03:56;;;;;;;14.00;10.90;;;;;;;15.07;78.59;93147.19;5057030;28;20185;-81
2023/09/13 05:06:22;;;;;;;13.37;10.77;;;;;;;15.19;77.25;93158.78;5057905;28;20230;-82
2023/09/13 05:08:50;;;;;;;11.27;10.27;;;;;;;15.32;76.52;93146.69;5063473;28;20211;-82
2023/09/13 05:11:16;;;;;;;10.87;10.00;;;;;;;15.34;77.08;93152.44;5060262;28;20234;-82
2023/09/13 05:13:41;;;;;;;11.93;10.83;;;;;;;15.36;75.20;93151.06;5059309;28;20220;-82
2023/09/13 05:16:07;;;;;;;10.13;9.10;;;;;;;15.62;72.95;93154.00;5059486;28;20291;-81
2023/09/13 05:18:33;;;;;;;9.87;9.13;;;;;;;15.56;73.29;93147.28;5065160;28;20178;-81
2023/09/13 05:20:59;;;;;;;10.50;9.57;;;;;;;15.75;72.39;93150.56;5058990;28;20855;-85
2023/09/13 05:23:24;;;;;;;11.83;10.80;;;;;;;15.90;72.12;93150.22;5064390;28;20242;-83
2023/09/13 05:25:50;;;;;;;11.23;10.23;;;;;;;16.00;70.81;93153.41;5040858;28;20234;-79
2023/09/13 05:28:16;;;;;;;11.23;10.20;;;;;;;16.07;71.21;93158.28;5036596;28;20186;-84
2023/09/13 05:30:45;;;;;;;11.53;10.60;;;;;;;16.14;70.38;93152.59;5055292;28;20224;-85
2023/09/13 05:33:11;;;;;;;10.80;10.00;;;;;;;16.19;70.24;93153.25;5068753;28;20209;-85
2023/09/13 05:35:37;;;;;;;12.57;11.30;;;;;;;16.37;68.85;93176.03;5060261;28;20221;-83
2023/09/13 05:38:03;;;;;;;10.97;10.03;;;;;;;16.50;68.31;93167.28;5069367;28;20193;-82
2023/09/13 05:40:30;;;;;;;10.93;10.03;;;;;;;16.55;69.13;93166.38;5063611;28;20263;-86
2023/09/13 05:42:56;;;;;;;11.43;10.43;;;;;;;16.71;67.93;93171.00;5044679;28;20193;-88
2023/09/13 05:45:26;;;;;;;11.37;10.17;;;;;;;16.65;68.66;93164.28;5047890;28;20217;-88
2023/09/13 05:47:51;;;;;;;10.60;9.60;;;;;;;16.60;68.87;93156.50;5067842;28;20236;-85
2023/09/13 05:50:17;;;;;;;10.97;9.90;;;;;;;16.64;69.50;93162.72;5064677;28;21045;-87
2023/09/13 05:52:43;;;;;;;11.63;10.53;;;;;;;16.75;68.42;93156.13;5040478;28;20225;-85
2023/09/13 05:55:09;;;;;;;12.30;11.03;;;;;;;16.98;67.43;93162.13;5039426;28;20202;-86
2023/09/13 05:57:35;;;;;;;12.23;10.90;;;;;;;17.24;65.71;93161.16;5067981;28;20201;-85
2023/09/13 06:00:01;;;;;;;11.97;10.90;;;;;;;17.33;65.25;93164.59;5066581;28;20201;-82
2023/09/13 06:02:26;;;;;;;11.53;10.40;;;;;;;17.35;65.63;93167.69;5067388;28;20185;-84
2023/09/13 06:04:51;;;;;;;11.73;10.60;;;;;;;17.11;65.19;93121.66;5067226;28;20769;-82
2023/09/13 06:07:17;;;;;;;11.83;10.43;;;;;;;17.27;65.51;93159.75;5062662;28;20216;-88
2023/09/13 06:09:42;;;;;;;12.07;10.97;;;;;;;17.36;64.84;93153.44;5066450;28;20218;-85
2023/09/13 06:12:08;;;;;;;10.60;9.73;;;;;;;17.73;64.03;93165.34;5063850;28;20225;-86
2023/09/13 06:14:33;;;;;;;13.70;10.70;;;;;;;17.75;63.57;93149.19;5058833;28;20300;-86
2023/09/13 06:16:59;;;;;;;12.60;11.30;;;;;;;17.81;64.34;93161.16;5065352;28;20252;-86
2023/09/13 06:19:24;;;;;;;17.20;12.53;;;;;;;17.97;63.85;93175.47;5057780;28;20190;-82
2023/09/13 06:21:50;;;;;;;15.20;12.30;;;;;;;17.95;64.83;93165.22;5061913;28;20228;-85
2023/09/13 06:24:16;;;;;;;16.97;11.33;;;;;;;17.95;64.88;93165.22;5067974;28;20201;-89
2023/09/13 06:26:41;;;;;;;15.03;12.23;;;;;;;17.75;65.12;93133.31;5049356;28;20551;-83
2023/09/13 06:29:07;;;;;;;16.37;11.30;;;;;;;18.02;64.63;93167.41;5043921;28;20203;-92
2023/09/13 06:31:32;;;;;;;20.10;11.87;;;;;;;18.09;64.42;93178.28;5062605;28;20243;-93
2023/09/13 06:33:58;;;;;;;14.17;11.53;;;;;;;18.23;63.61;93170.97;5066387;28;20210;-91
2023/09/13 06:36:24;;;;;;;13.67;10.40;;;;;;;18.25;62.65;93176.72;5058058;28;20241;-89
2023/09/13 06:38:50;;;;;;;13.83;10.80;;;;;;;17.91;63.22;93180.13;5071068;28;20171;-88
2023/09/13 06:41:16;;;;;;;12.47;10.13;;;;;;;18.31;62.71;93178.91;5068071;28;20221;-89
2023/09/13 06:43:43;;;;;;;10.57;9.53;;;;;;;18.09;62.95;93183.56;5065945;28;20238;-91
2023/09/13 06:46:09;;;;;;;13.83;9.93;;;;;;;18.48;62.46;93186.09;5052028;28;20283;-91
2023/09/13 06:48:34;;;;;;;11.07;10.03;;;;;;;18.80;60.70;93180.31;5045802;28;20230;-90
2023/09/13 06:51:00;;;;;;;11.57;10.33;;;;;;;18.82;59.71;93186.81;5055532;28;20230;-89
2023/09/13 06:53:25;;;;;;;13.80;10.30;;;;;;;18.60;60.58;93179.06;5054869;28;20235;-92
2023/09/13 06:55:51;;;;;;;15.43;11.27;;;;;;;19.01;60.16;93192.53;5067133;28;20224;-78
2023/09/13 06:58:16;;;;;;;11.23;10.10;;;;;;;18.94;60.11;93196.75;5066559;28;20226;-85
2023/09/13 07:00:42;;;;;;;17.20;10.90;;;;;;;19.12;58.33;93193.75;5061320;28;20230;-88
2023/09/13 07:03:08;;;;;;;17.90;10.57;;;;;;;19.45;56.37;93187.91;5044404;28;20183;-85
2023/09/13 07:05:34;;;;;;;11.67;10.70;;;;;;;19.15;58.23;93201.06;5052431;28;20248;-88
2023/09/13 07:08:00;;;;;;;11.40;9.87;;;;;;;19.40;57.25;93199.44;5060659;28;20211;-80
2023/09/13 07:10:26;;;;;;;12.33;10.27;;;;;;;19.83;55.93;93197.34;5064717;28;20321;-85
2023/09/13 07:12:52;;;;;;;13.73;10.63;;;;;;;19.54;56.45;93200.00;5063353;28;20199;-84
2023/09/13 07:15:18;;;;;;;13.43;11.03;;;;;;;19.16;56.98;93185.94;5069523;28;20229;-87
2023/09/13 07:17:43;;;;;;;14.57;10.13;;;;;;;19.94;54.71;93203.06;5064575;28;20218;-85
2023/09/13 07:20:10;;;;;;;12.90;10.77;;;;;;;20.11;54.36;93202.97;5071813;28;20182;-89
2023/09/13 07:22:36;;;;;;;12.27;11.10;;;;;;;19.57;55.57;93203.88;5061933;28;20190;-88
2023/09/13 07:25:03;;;;;;;14.07;10.83;;;;;;;19.70;56.44;93192.28;5072093;28;20185;-85
2023/09/13 07:27:28;;;;;;;14.10;10.40;;;;;;;20.03;55.28;93190.53;5072073;28;20183;-87
2023/09/13 07:29:54;;;;;;;12.67;10.17;;;;;;;19.92;54.53;93203.38;5072004;28;20194;-90
2023/09/13 07:32:19;;;;;;;10.63;9.60;;;;;;;20.35;54.45;93209.22;5071595;28;20220;-86
2023/09/13 07:34:45;;;;;;;12.17;10.90;;;;;;;20.03;54.83;93196.59;5071827;28;20196;-87
2023/09/13 07:37:10;;;;;;;14.00;10.90;;;;;;;20.33;54.37;93206.09;5071934;28;20228;-87
2023/09/13 07:39:36;;;;;;;11.77;10.47;;;;;;;20.51;53.70;93201.44;5071658;28;20178;-85
2023/09/13 07:42:03;;;;;;;11.23;9.70;;;;;;;20.65;53.72;93200.06;5067230;28;20246;-89
2023/09/13 07:44:29;;;;;;;10.67;9.77;;;;;;;20.80;53.01;93203.22;5069433;28;20242;-90
2023/09/13 07:46:54;;;;;;;12.53;10.33;;;;;;;20.84;53.39;93204.13;5055481;28;20275;-81
2023/09/13 07:49:19;;;;;;;15.37;10.03;;;;;;;20.85;52.46;93201.16;5052456;28;20189;-89
2023/09/13 07:51:44;;;;;;;11.70;10.57;;;;;;;20.97;51.29;93203.06;5066175;28;20242;-86
2023/09/13 07:54:10;;;;;;;13.73;11.60;;;;;;;20.82;53.60;93201.81;5075775;28;20219;-81
2023/09/13 07:56:37;;;;;;;10.57;9.67;;;;;;;20.58;53.52;93191.88;5043849;28;20257;-88
2023/09/13 07:59:02;;;;;;;10.47;9.60;;;;;;;20.64;53.94;93195.88;5048368;28;20190;-83
2023/09/13 08:01:28;;;;;;;11.27;10.17;;;;;;;21.11;52.11;93203.56;5053449;28;21105;-92
2023/09/13 08:03:54;;;;;;;12.87;9.43;;;;;;;20.73;51.32;93187.06;5071076;28;20215;-88
2023/09/13 08:06:22;;;;;;;11.10;10.00;;;;;;;21.00;52.15;93199.75;5071235;28;20228;-93
2023/09/13 08:08:48;;;;;;;14.93;9.63;;;;;;;21.40;50.21;93206.06;5070018;28;20195;-92
2023/09/13 08:11:14;;;;;;;11.23;10.05;;;;;;;21.22;51.13;93204.69;5064727;28;20231;-85
2023/09/13 08:13:39;;;;;;;11.70;9.90;;;;;;;20.90;51.47;93186.88;5064542;28;20212;-81
2023/09/13 08:16:05;;;;;;;9.40;8.68;;;;;;;20.95;50.25;93203.38;5057214;28;20232;-90
2023/09/13 08:18:30;;;;;;;14.13;9.82;;;;;;;21.29;51.04;93204.94;5070004;28;20204;-86
2023/09/13 08:20:55;;;;;;;13.45;9.80;;;;;;;21.65;50.23;93203.09;5065960;28;20403;-87
2023/09/13 08:23:21;;;;;;;10.43;9.15;;;;;;;21.72;50.11;93207.84;5047903;28;20289;-92
2023/09/13 08:25:46;;;;;;;10.20;9.35;;;;;;;21.54;48.56;93193.25;5059476;28;20224;-86
2023/09/13 08:28:12;;;;;;;15.65;9.30;;;;;;;21.79;48.02;93200.16;5070441;28;20299;-88
2023/09/13 08:30:37;;;;;;;10.82;9.63;;;;;;;22.03;47.73;93197.47;5069037;28;20220;-87
2023/09/13 08:33:03;;;;;;;11.13;9.80;;;;;;;22.39;46.94;93194.75;5070230;28;20213;-89
2023/09/13 08:35:28;;;;;;;10.30;9.30;;;;;;;22.10;47.75;93187.06;5069331;28;20289;-86
2023/09/13 08:37:54;;;;;;;11.65;9.07;;;;;;;21.69;48.46;93192.56;5070209;28;20173;-87
2023/09/13 08:40:20;;;;;;;11.57;9.65;;;;;;;22.14;46.99;93167.44;5060244;28;20754;-80
2023/09/13 08:42:46;;;;;;;9.70;9.00;;;;;;;22.09;46.26;93185.47;5046700;28;20212;-85
2023/09/13 08:45:13;;;;;;;9.75;9.02;;;;;;;22.32;46.72;93188.44;5048009;28;20177;-88
2023/09/13 08:47:42;;;;;;;9.57;8.73;;;;;;;22.68;45.61;93194.44;5069428;28;21289;-89
2023/09/13 08:50:08;;;;;;;15.63;9.93;;;;;;;22.32;47.06;93191.88;5067746;28;20192;-87
2023/09/13 08:52:37;;;;;;;9.80;8.90;;;;;;;22.47;46.42;93191.19;5045579;28;20210;-89
2023/09/13 08:55:06;;;;;;;16.38;10.38;;;;;;;22.90;46.02;93191.25;5052899;28;20205;-79
2023/09/13 08:57:33;;;;;;;9.82;8.98;;;;;;;22.72;45.91;93187.34;5071000;28;20190;-87
2023/09/13 08:59:59;;;;;;;10.70;9.68;;;;;;;22.53;46.47;93171.22;5069503;28;20241;-90
2023/09/13 09:02:26;;;;;;;10.65;9.75;;;;;;;22.42;46.52;93183.41;5070432;28;20206;-83
2023/09/13 09:04:52;;;;;;;10.77;9.80;;;;;;;22.70;45.62;93188.78;5065986;28;20194;-87
2023/09/13 09:07:19;;;;;;;10.77;9.00;;;;;;;22.86;45.27;93178.97;5064423;28;20299;-92
2023/09/13 09:09:46;;;;;;;10.10;9.13;;;;;;;22.97;45.40;93178.16;5066239;28;20187;-92
2023/09/13 09:12:16;;;;;;;9.07;8.18;;;;;;;22.81;45.11;93180.00;5047588;28;20225;-87
2023/09/13 09:14:44;;;;;;;9.52;8.93;;;;;;;22.96;45.33;93175.78;5045096;28;20256;-84
2023/09/13 09:17:13;;;;;;;10.80;9.45;;;;;;;23.12;44.28;93182.72;5066379;28;20227;-82
2023/09/13 09:19:39;;;;;;;11.15;10.07;;;;;;;22.67;44.90;93181.47;5062550;28;20212;-78
2023/09/13 09:22:07;;;;;;;10.50;9.40;;;;;;;22.78;45.15;93177.22;5064025;28;20224;-79
2023/09/13 09:24:33;;;;;;;10.43;9.55;;;;;;;22.81;45.49;93158.69;5060691;28;21240;-81
2023/09/13 09:26:59;;;;;;;14.27;10.07;;;;;;;22.99;45.27;93178.56;5050221;28;20255;-83
2023/09/13 09:29:41;;;;;;;12.13;9.88;;;;;;;23.62;44.94;93179.44;5045449;28;20470;-85
2023/09/13 09:32:08;;;;;;;12.25;9.32;;;;;;;23.96;43.76;93181.41;5049317;28;20225;-85
2023/09/13 09:34:38;;;;;;;12.55;9.35;;;;;;;24.07;42.13;93186.97;5081789;28;20196;-87
2023/09/13 09:37:07;;;;;;;10.93;9.88;;;;;;;23.92;42.57;93188.53;5066009;28;20234;-86
2023/09/13 09:39:42;;;;;;;9.95;8.88;;;;;;;23.48;43.60;93168.41;5069217;28;20199;-88
2023/09/13 09:42:14;;;;;;;12.25;11.05;;;;;;;23.78;42.76;93174.88;5046221;28;20217;-85
2023/09/13 09:44:40;;;;;;;12.27;9.85;;;;;;;23.75;43.92;93176.31;5040023;28;20191;-79
2023/09/13 09:47:10;;;;;;;10.82;9.80;;;;;;;23.89;42.62;93173.22;5059880;28;20239;-84
2023/09/13 09:49:36;;;;;;;14.27;9.63;;;;;;;23.83;43.03;93171.91;5068569;28;20192;-80
2023/09/13 09:52:02;;;;;;;11.43;10.48;;;;;;;24.30;43.04;93171.84;5064331;28;20233;-80
2023/09/13 09:54:27;;;;;;;14.30;10.20;;;;;;;24.43;43.12;93163.38;5064992;28;20212;-81
2023/09/13 09:56:53;;;;;;;11.32;10.18;;;;;;;24.33;42.34;93157.81;5049499;28;20257;-83
2023/09/13 09:59:18;;;;;;;16.08;9.23;;;;;;;24.45;40.97;93165.69;5037112;28;20185;-79
2023/09/13 10:01:46;;;;;;;12.85;10.95;;;;;;;24.18;41.88;93155.97;5043187;28;20327;-80
2023/09/13 10:04:12;;;;;;;14.50;9.13;;;;;;;24.39;42.68;93162.50;5049558;28;20215;-78
2023/09/13 10:06:59;;;;;;;12.73;9.80;;;;;;;24.73;40.54;93151.03;5049782;28;20229;-80
2023/09/13 10:09:40;;;;;;;12.73;9.65;;;;;;;24.94;40.87;93161.34;5064643;28;20191;-76
2023/09/13 10:12:07;;;;;;;10.35;8.85;;;;;;;24.93;40.76;93159.81;5055975;28;20246;-81
2023/09/13 10:14:33;;;;;;;11.43;10.25;;;;;;;24.98;41.41;93157.59;5067925;28;20196;-80
2023/09/13 10:17:02;;;;;;;15.70;9.23;;;;;;;24.74;40.34;93149.13;5053218;28;20841;-79
2023/09/13 10:19:29;;;;;;;10.05;9.15;;;;;;;24.53;40.38;93154.03;5046746;28;20203;-82
2023/09/13 10:21:55;;;;;;;14.02;9.85;;;;;;;24.52;40.76;93155.94;5053113;28;20227;-77
2023/09/13 10:24:23;;;;;;;10.40;9.40;;;;;;;24.86;40.03;93152.44;5061799;28;20211;-81
2023/09/13 10:26:52;;;;;;;10.10;9.25;;;;;;;25.06;40.69;93143.25;5067041;28;20223;-88
2023/09/13 10:29:24;;;;;;;12.90;8.63;;;;;;;25.25;39.24;93147.78;5065291;28;20184;-80
2023/09/13 10:31:52;;;;;;;10.75;9.32;;;;;;;24.97;39.60;93133.91;5060179;28;20235;-80
2023/09/13 10:34:27;;;;;;;11.20;9.88;;;;;;;25.13;39.18;93132.69;5067038;28;20207;-81
2023/09/13 10:37:03;;;;;;;11.90;9.80;;;;;;;24.98;39.92;93138.16;5066534;28;20222;-85
2023/09/13 10:39:34;;;;;;;10.20;9.38;;;;;;;25.20;40.05;93138.16;5059664;28;20199;-83
2023/09/13 10:42:00;;;;;;;9.68;8.65;;;;;;;25.61;39.53;93136.56;5061049;28;20236;-85
2023/09/13 10:44:25;;;;;;;9.65;8.88;;;;;;;25.47;38.23;93128.34;5063399;28;20196;-86
2023/09/13 10:46:51;;;;;;;10.90;8.80;;;;;;;25.72;38.33;93131.38;5062869;28;20223;-85
2023/09/13 10:49:17;;;;;;;10.07;9.13;;;;;;;26.03;37.39;93136.47;5058227;28;20233;-83
2023/09/13 10:51:43;;;;;;;10.43;9.13;;;;;;;26.04;36.46;93136.09;5046672;28;20228;-85
2023/09/13 10:54:10;;;;;;;9.75;8.95;;;;;;;25.46;38.35;93128.69;5045907;28;20213;-82
2023/09/13 10:56:35;;;;;;;14.80;8.43;;;;;;;25.91;37.13;93132.06;5054063;28;20254;-87
2023/09/13 10:59:03;;;;;;;10.65;9.52;;;;;;;25.98;37.40;93124.13;5059310;28;20183;-83
2023/09/13 11:01:30;;;;;;;9.70;8.70;;;;;;;25.83;37.38;93118.94;5062025;28;20296;-86
2023/09/13 11:03:55;;;;;;;10.40;9.55;;;;;;;25.81;36.83;93124.66;5066044;28;20201;-85
2023/09/13 11:06:23;;;;;;;9.27;8.48;;;;;;;25.91;37.39;93124.06;5038628;28;20237;-82
2023/09/13 11:08:48;;;;;;;9.30;8.40;;;;;;;26.06;37.74;93112.44;5039279;28;20200;-91
2023/09/13 11:11:20;;;;;;;11.10;8.60;;;;;;;26.35;36.87;93121.63;5053019;28;20251;-80
2023/09/13 11:13:49;;;;;;;11.43;8.90;;;;;;;26.35;36.04;93117.00;5054178;28;20212;-84
2023/09/13 11:16:16;;;;;;;9.70;8.75;;;;;;;25.87;36.40;93104.47;5062967;28;20264;-85
2023/09/13 11:18:46;;;;;;;14.77;8.98;;;;;;;26.14;36.58;93111.41;5061744;28;20185;-83
2023/09/13 11:21:25;;;;;;;15.48;8.82;;;;;;;26.20;36.63;93098.47;5044153;28;20233;-83
2023/09/13 11:23:52;;;;;;;10.05;8.95;;;;;;;26.56;35.77;93111.94;5047878;28;20209;-86